createdAt,value
2019-03-15T00:02:12.225Z,4.60
2019-03-15T00:04:40.053Z,4.33
2019-03-15T00:07:06.610Z,4.17
2019-03-15T00:09:32.892Z,4.47
2019-03-15T00:12:00.050Z,4.10
2019-03-15T00:14:26.347Z,4.13
2019-03-15T00:16:52.737Z,3.97
2019-03-15T00:19:19.025Z,4.00
2019-03-15T00:21:45.313Z,3.93
2019-03-15T00:24:11.618Z,3.43
2019-03-15T00:26:37.905Z,4.33
2019-03-15T00:29:04.202Z,3.97
2019-03-15T00:31:30.598Z,4.27
2019-03-15T00:33:56.921Z,4.00
2019-03-15T00:36:23.207Z,3.80
2019-03-15T00:38:49.499Z,3.40
2019-03-15T00:41:15.814Z,4.93
2019-03-15T00:43:42.093Z,3.60
2019-03-15T00:46:08.389Z,3.43
2019-03-15T00:48:34.683Z,3.53
2019-03-15T00:51:00.988Z,3.53
2019-03-15T00:53:27.284Z,4.93
2019-03-15T00:55:53.564Z,3.87
2019-03-15T00:58:20.029Z,3.63
2019-03-15T01:00:46.319Z,4.40
2019-03-15T01:03:12.607Z,4.63
2019-03-15T01:05:38.937Z,3.63
2019-03-15T01:08:05.203Z,3.90
2019-03-15T01:10:31.517Z,4.40
2019-03-15T01:12:57.811Z,4.00
2019-03-15T01:15:24.384Z,3.63
2019-03-15T01:17:50.803Z,3.63
2019-03-15T01:20:17.081Z,3.30
2019-03-15T01:22:43.382Z,3.77
2019-03-15T01:25:09.798Z,3.60
2019-03-15T01:27:36.085Z,3.80
2019-03-15T01:30:05.075Z,3.77
2019-03-15T01:32:31.300Z,3.53
2019-03-15T01:34:57.610Z,3.53
2019-03-15T01:37:23.894Z,3.40
2019-03-15T01:39:50.455Z,4.67
2019-03-15T01:42:16.670Z,3.80
2019-03-15T01:44:43.082Z,4.17
2019-03-15T01:47:09.405Z,3.87
2019-03-15T01:49:35.707Z,3.20
2019-03-15T01:52:02.125Z,3.40
2019-03-15T01:54:28.430Z,3.73
2019-03-15T01:56:54.702Z,3.67
2019-03-15T01:59:21.004Z,3.90
2019-03-15T02:01:47.271Z,3.87
2019-03-15T02:04:13.575Z,3.40
2019-03-15T02:06:39.961Z,3.53
2019-03-15T02:09:09.148Z,3.30
2019-03-15T02:11:34.335Z,3.23
2019-03-15T02:14:01.687Z,3.20
2019-03-15T02:16:28.036Z,3.70
2019-03-15T02:18:54.318Z,3.50
2019-03-15T02:21:20.606Z,3.57
2019-03-15T02:23:46.942Z,3.17
2019-03-15T02:26:13.215Z,3.53
2019-03-15T02:28:39.512Z,4.17
2019-03-15T02:31:05.826Z,3.73
2019-03-15T02:33:33.405Z,3.27
2019-03-15T02:36:00.014Z,3.70
2019-03-15T02:38:27.082Z,4.17
2019-03-15T02:40:53.624Z,3.83
2019-03-15T02:43:19.933Z,4.17
2019-03-15T02:45:46.220Z,3.90
2019-03-15T02:48:13.571Z,3.90
2019-03-15T02:50:40.058Z,4.20
2019-03-15T02:53:06.441Z,4.10
2019-03-15T02:55:32.737Z,5.27
2019-03-15T02:57:59.056Z,3.90
2019-03-15T03:00:25.350Z,4.27
2019-03-15T03:02:51.657Z,4.50
2019-03-15T03:05:17.941Z,4.77
2019-03-15T03:07:44.246Z,3.80
2019-03-15T03:10:10.562Z,4.93
2019-03-15T03:12:37.108Z,4.00
2019-03-15T03:15:05.008Z,3.70
2019-03-15T03:17:31.312Z,4.27
2019-03-15T03:19:57.616Z,4.17
2019-03-15T03:22:23.919Z,4.27
2019-03-15T03:24:50.883Z,4.00
2019-03-15T03:27:17.420Z,3.53
2019-03-15T03:29:43.734Z,3.60
2019-03-15T03:32:10.042Z,3.70
2019-03-15T03:34:36.320Z,4.50
2019-03-15T03:37:03.231Z,5.03
2019-03-15T03:39:29.508Z,4.30
2019-03-15T03:41:56.095Z,4.33
2019-03-15T03:44:22.404Z,3.83
2019-03-15T03:46:48.733Z,3.83
2019-03-15T03:49:15.011Z,4.00
2019-03-15T03:51:41.604Z,3.70
2019-03-15T03:54:07.891Z,4.37
2019-03-15T03:56:34.269Z,4.37
2019-03-15T03:59:00.866Z,4.03
2019-03-15T04:01:27.291Z,4.23
2019-03-15T04:03:53.942Z,4.47
2019-03-15T04:06:20.247Z,5.37
2019-03-15T04:08:46.565Z,5.03
2019-03-15T04:11:12.874Z,3.80
2019-03-15T04:13:39.206Z,3.80
2019-03-15T04:16:05.476Z,3.60
2019-03-15T04:18:31.799Z,3.93
2019-03-15T04:20:58.122Z,4.00
2019-03-15T04:23:24.436Z,4.80
2019-03-15T04:25:50.747Z,5.30
2019-03-15T04:28:17.041Z,5.47
2019-03-15T04:30:43.351Z,4.87
2019-03-15T04:33:09.638Z,5.00
2019-03-15T04:35:36.234Z,4.77
2019-03-15T04:38:02.544Z,5.33
2019-03-15T04:40:28.840Z,4.97
2019-03-15T04:42:55.121Z,4.53
2019-03-15T04:45:21.431Z,5.53
2019-03-15T04:47:47.700Z,5.07
2019-03-15T04:50:14.021Z,5.70
2019-03-15T04:52:40.363Z,5.20
2019-03-15T04:55:06.758Z,5.20
2019-03-15T04:57:33.052Z,6.00
2019-03-15T04:59:59.622Z,5.63
2019-03-15T05:02:25.920Z,5.17
2019-03-15T05:04:52.193Z,4.97
2019-03-15T05:07:18.476Z,6.13
2019-03-15T05:09:44.774Z,5.40
2019-03-15T05:12:11.055Z,5.20
2019-03-15T05:14:37.343Z,4.93
2019-03-15T05:17:03.667Z,5.30
2019-03-15T05:19:30.021Z,4.97
2019-03-15T05:21:56.301Z,5.00
2019-03-15T05:24:22.603Z,5.03
2019-03-15T05:26:48.916Z,5.33
2019-03-15T05:29:15.216Z,5.20
2019-03-15T05:31:41.673Z,4.90
2019-03-15T05:34:07.967Z,5.07
2019-03-15T05:36:34.271Z,4.50
2019-03-15T05:39:00.594Z,4.97
2019-03-15T05:41:26.885Z,4.60
2019-03-15T05:43:53.330Z,5.10
2019-03-15T05:46:19.603Z,5.57
2019-03-15T05:48:45.905Z,4.33
2019-03-15T05:51:12.302Z,4.70
2019-03-15T05:53:38.692Z,4.30
2019-03-15T05:56:05.022Z,4.50
2019-03-15T05:58:31.326Z,5.13
2019-03-15T06:00:57.614Z,4.87
2019-03-15T06:03:23.936Z,4.60
2019-03-15T06:05:50.308Z,4.83
2019-03-15T06:08:16.653Z,4.97
2019-03-15T06:10:42.950Z,4.63
2019-03-15T06:13:09.256Z,4.80
2019-03-15T06:15:35.548Z,5.27
2019-03-15T06:18:01.828Z,5.57
2019-03-15T06:20:28.127Z,4.67
2019-03-15T06:22:54.446Z,5.40
2019-03-15T06:25:20.750Z,3.73
2019-03-15T06:27:47.060Z,4.80
2019-03-15T06:30:13.842Z,5.43
2019-03-15T06:32:40.249Z,4.30
2019-03-15T06:35:06.845Z,4.90
2019-03-15T06:37:33.139Z,4.77
2019-03-15T06:39:59.436Z,5.20
2019-03-15T06:42:25.744Z,5.30
2019-03-15T06:44:57.735Z,5.10
2019-03-15T06:47:20.169Z,4.40
2019-03-15T06:49:47.312Z,4.80
2019-03-15T06:52:13.674Z,4.90
2019-03-15T06:54:39.982Z,4.67
2019-03-15T06:57:06.620Z,4.47
2019-03-15T06:59:33.202Z,5.30
2019-03-15T07:01:59.511Z,4.50
2019-03-15T07:04:25.808Z,4.70
2019-03-15T07:06:52.104Z,4.83
2019-03-15T07:09:18.397Z,4.63
2019-03-15T07:11:44.688Z,4.47
2019-03-15T07:14:10.971Z,4.10
2019-03-15T07:16:38.361Z,4.30
2019-03-15T07:19:04.673Z,3.77
2019-03-15T07:21:30.998Z,4.97
2019-03-15T07:23:57.981Z,4.40
2019-03-15T07:26:24.349Z,5.20
2019-03-15T07:28:50.914Z,4.73
2019-03-15T07:31:17.227Z,4.27
2019-03-15T07:33:43.821Z,4.70
2019-03-15T07:36:10.132Z,5.30
2019-03-15T07:38:36.430Z,6.40
2019-03-15T07:41:02.822Z,5.90
2019-03-15T07:43:29.388Z,7.20
2019-03-15T07:45:55.609Z,6.93
2019-03-15T07:48:23.049Z,7.63
2019-03-15T07:50:50.017Z,7.10
2019-03-15T07:53:16.318Z,6.70
2019-03-15T07:55:42.610Z,8.13
2019-03-15T07:58:08.918Z,6.73
2019-03-15T08:00:35.203Z,6.33
2019-03-15T08:03:01.523Z,7.80
2019-03-15T08:05:27.816Z,8.33
2019-03-15T08:07:54.108Z,7.93
2019-03-15T08:10:20.407Z,7.33
2019-03-15T08:12:49.343Z,6.60
2019-03-15T08:15:14.843Z,7.03
2019-03-15T08:17:41.130Z,7.30
2019-03-15T08:20:11.579Z,7.83
2019-03-15T08:22:37.979Z,7.17
2019-03-15T08:25:06.397Z,7.27
2019-03-15T08:27:32.694Z,6.70
2019-03-15T08:29:58.988Z,6.57
2019-03-15T08:32:25.294Z,6.67
2019-03-15T08:34:51.592Z,6.70
2019-03-15T08:37:17.873Z,6.83
2019-03-15T08:39:44.368Z,7.40
2019-03-15T08:42:10.788Z,7.73
2019-03-15T08:44:37.105Z,6.90
2019-03-15T08:47:03.385Z,7.67
2019-03-15T08:49:29.778Z,7.43
2019-03-15T08:52:03.726Z,7.40
2019-03-15T08:54:24.199Z,8.10
2019-03-15T08:56:50.491Z,7.77
2019-03-15T08:59:16.805Z,7.57
2019-03-15T09:01:43.093Z,7.60
2019-03-15T09:04:09.457Z,7.20
2019-03-15T09:06:35.715Z,7.37
2019-03-15T09:09:03.613Z,7.50
2019-03-15T09:11:30.042Z,6.73
2019-03-15T09:13:56.348Z,6.67
2019-03-15T09:16:22.622Z,6.33
2019-03-15T09:18:48.907Z,6.27
2019-03-15T09:21:15.236Z,6.23
2019-03-15T09:23:41.520Z,6.57
2019-03-15T09:26:10.332Z,5.83
2019-03-15T09:28:35.987Z,5.63
2019-03-15T09:31:02.278Z,4.80
2019-03-15T09:33:28.673Z,5.47
2019-03-15T09:35:54.935Z,5.40
2019-03-15T09:38:21.215Z,5.90
2019-03-15T09:40:47.520Z,5.10
2019-03-15T09:43:13.783Z,5.23
2019-03-15T09:45:40.376Z,5.20
2019-03-15T09:48:06.701Z,4.40
2019-03-15T09:50:39.913Z,4.83
2019-03-15T09:53:01.111Z,4.57
2019-03-15T09:55:32.729Z,5.67
2019-03-15T09:57:55.497Z,4.70
2019-03-15T10:00:21.798Z,5.43
2019-03-15T10:02:48.560Z,4.50
2019-03-15T10:05:14.957Z,4.20
2019-03-15T10:07:43.275Z,4.40
2019-03-15T10:10:13.866Z,4.53
2019-03-15T10:12:39.666Z,5.43
2019-03-15T10:15:08.970Z,4.60
2019-03-15T10:17:35.266Z,4.90
2019-03-15T10:20:03.063Z,4.77
2019-03-15T10:22:29.354Z,4.53
2019-03-15T10:24:55.685Z,4.53
2019-03-15T10:27:22.042Z,4.20
2019-03-15T10:29:48.344Z,3.90
2019-03-15T10:32:14.652Z,3.77
2019-03-15T10:34:40.963Z,4.43
2019-03-15T10:37:07.513Z,4.47
2019-03-15T10:39:33.831Z,4.37
2019-03-15T10:42:00.132Z,4.03
2019-03-15T10:44:26.444Z,4.80
2019-03-15T10:46:52.724Z,3.40
2019-03-15T10:49:19.039Z,3.90
2019-03-15T10:51:45.326Z,4.30
2019-03-15T10:54:11.633Z,4.10
2019-03-15T10:56:37.934Z,4.17
2019-03-15T10:59:04.220Z,3.87
2019-03-15T11:01:30.517Z,3.60
2019-03-15T11:03:56.816Z,4.23
2019-03-15T11:06:23.115Z,3.80
2019-03-15T11:08:49.420Z,3.97
2019-03-15T11:11:15.738Z,3.93
2019-03-15T11:13:42.025Z,3.80
2019-03-15T11:16:08.323Z,3.97
2019-03-15T11:18:34.615Z,3.83
2019-03-15T11:21:00.933Z,4.00
2019-03-15T11:23:27.205Z,4.33
2019-03-15T11:25:53.518Z,4.03
2019-03-15T11:28:20.082Z,4.53
2019-03-15T11:30:46.380Z,3.57
2019-03-15T11:33:12.673Z,3.20
2019-03-15T11:35:38.982Z,3.17
2019-03-15T11:38:05.553Z,3.50
2019-03-15T11:40:31.835Z,3.67
2019-03-15T11:42:58.389Z,3.83
2019-03-15T11:45:24.952Z,3.53
2019-03-15T11:48:03.264Z,3.63
2019-03-15T11:50:20.276Z,3.70
2019-03-15T11:52:46.554Z,3.93
2019-03-15T11:55:12.854Z,3.87
2019-03-15T11:57:39.152Z,3.60
2019-03-15T12:00:12.284Z,4.20
2019-03-15T12:02:38.677Z,3.80
2019-03-15T12:05:06.082Z,3.40
2019-03-15T12:07:32.619Z,3.73
2019-03-15T12:09:58.855Z,4.07
2019-03-15T12:12:25.054Z,3.60
2019-03-15T12:14:51.370Z,4.57
2019-03-15T12:17:17.664Z,3.53
2019-03-15T12:19:44.219Z,4.00
2019-03-15T12:22:10.508Z,3.17
2019-03-15T12:24:36.820Z,3.57
2019-03-15T12:27:03.205Z,3.90
2019-03-15T12:29:29.476Z,3.30
2019-03-15T12:31:55.813Z,3.23
2019-03-15T12:34:22.063Z,3.50
2019-03-15T12:36:48.370Z,3.03
2019-03-15T12:39:14.910Z,3.20
2019-03-15T12:41:41.235Z,3.00
2019-03-15T12:44:10.419Z,3.87
2019-03-15T12:46:35.900Z,3.07
2019-03-15T12:49:02.209Z,3.77
2019-03-15T12:51:32.319Z,2.60
2019-03-15T12:53:56.586Z,2.93
2019-03-15T12:56:22.880Z,2.90
2019-03-15T12:58:49.448Z,2.60
2019-03-15T13:01:15.777Z,3.37
2019-03-15T13:03:42.109Z,2.93
2019-03-15T13:06:08.662Z,2.80
2019-03-15T13:08:34.956Z,3.00
2019-03-15T13:11:01.272Z,2.70
2019-03-15T13:13:27.581Z,2.60
2019-03-15T13:15:53.862Z,2.80
2019-03-15T13:18:20.502Z,2.97
2019-03-15T13:20:46.798Z,2.80
2019-03-15T13:23:13.111Z,2.30
2019-03-15T13:25:39.413Z,2.47
2019-03-15T13:28:05.809Z,2.47
2019-03-15T13:30:32.131Z,2.20
2019-03-15T13:32:58.404Z,2.00
2019-03-15T13:35:24.695Z,2.50
2019-03-15T13:37:51.001Z,2.33
2019-03-15T13:40:17.696Z,1.80
2019-03-15T13:42:44.008Z,2.20
2019-03-15T13:45:11.523Z,2.40
2019-03-15T13:47:37.823Z,2.00
2019-03-15T13:50:12.920Z,2.60
2019-03-15T13:52:39.238Z,2.63
2019-03-15T13:55:05.628Z,3.20
2019-03-15T13:57:31.915Z,3.20
2019-03-15T13:59:58.406Z,3.10
2019-03-15T14:02:24.967Z,3.27
2019-03-15T14:04:51.265Z,3.10
2019-03-15T14:07:19.877Z,2.90
2019-03-15T14:09:45.631Z,3.20
2019-03-15T14:12:11.935Z,3.47
2019-03-15T14:14:38.218Z,3.20
2019-03-15T14:17:04.797Z,3.87
2019-03-15T14:19:30.988Z,3.73
2019-03-15T14:21:57.291Z,3.70
2019-03-15T14:24:23.696Z,4.30
2019-03-15T14:26:51.142Z,4.00
2019-03-15T14:29:17.653Z,3.27
2019-03-15T14:31:43.962Z,3.90
2019-03-15T14:34:10.231Z,3.73
2019-03-15T14:36:36.817Z,4.37
2019-03-15T14:39:04.729Z,3.97
2019-03-15T14:41:31.019Z,4.23
2019-03-15T14:43:57.550Z,3.87
2019-03-15T14:46:23.819Z,3.70
2019-03-15T14:48:50.127Z,3.60
2019-03-15T14:51:16.441Z,3.80
2019-03-15T14:53:42.705Z,3.80
2019-03-15T14:56:08.898Z,3.67
2019-03-15T14:58:35.200Z,4.07
2019-03-15T15:01:01.499Z,4.07
2019-03-15T15:03:27.811Z,3.47
2019-03-15T15:05:54.084Z,4.17
2019-03-15T15:08:20.382Z,3.70
2019-03-15T15:10:46.963Z,4.27
2019-03-15T15:13:13.268Z,3.10
2019-03-15T15:15:39.576Z,3.40
2019-03-15T15:18:05.974Z,3.60
2019-03-15T15:20:32.293Z,3.07
2019-03-15T15:22:58.611Z,3.30
2019-03-15T15:25:24.906Z,3.30
2019-03-15T15:28:03.517Z,3.80
2019-03-15T15:30:20.105Z,3.60
2019-03-15T15:32:46.509Z,3.33
2019-03-15T15:35:13.195Z,2.97
2019-03-15T15:37:39.514Z,2.83
2019-03-15T15:40:11.348Z,3.30
2019-03-15T15:42:37.735Z,3.20
2019-03-15T15:45:06.938Z,2.90
2019-03-15T15:47:33.230Z,2.73
2019-03-15T15:49:59.570Z,2.77
2019-03-15T15:52:25.863Z,2.73
2019-03-15T15:54:52.158Z,2.93
2019-03-15T15:57:18.472Z,2.70
2019-03-15T15:59:44.749Z,2.60
2019-03-15T16:02:11.085Z,2.67
2019-03-15T16:04:37.395Z,2.70
2019-03-15T16:07:03.866Z,2.70
2019-03-15T16:09:30.170Z,2.80
2019-03-15T16:11:56.491Z,2.90
2019-03-15T16:14:22.776Z,3.53
2019-03-15T16:16:49.115Z,3.40
2019-03-15T16:19:15.398Z,3.40
2019-03-15T16:21:41.680Z,3.73
2019-03-15T16:24:07.983Z,3.37
2019-03-15T16:26:34.278Z,3.50
2019-03-15T16:29:00.589Z,3.43
2019-03-15T16:31:26.894Z,3.23
2019-03-15T16:33:53.206Z,3.30
2019-03-15T16:36:19.481Z,2.90
2019-03-15T16:38:45.762Z,2.97
2019-03-15T16:41:12.148Z,3.30
2019-03-15T16:43:38.442Z,3.60
2019-03-15T16:46:04.723Z,3.60
2019-03-15T16:48:31.037Z,3.40
2019-03-15T16:50:57.323Z,3.93
2019-03-15T16:53:23.632Z,3.20
2019-03-15T16:55:49.925Z,3.37
2019-03-15T16:58:16.230Z,3.70
2019-03-15T17:00:42.783Z,3.13
2019-03-15T17:03:09.068Z,3.10
2019-03-15T17:05:35.729Z,3.00
2019-03-15T17:08:02.076Z,2.80
2019-03-15T17:10:28.467Z,2.80
2019-03-15T17:12:55.933Z,3.90
2019-03-15T17:15:26.260Z,2.60
2019-03-15T17:17:53.307Z,3.30
2019-03-15T17:20:19.703Z,3.30
2019-03-15T17:22:45.990Z,2.97
2019-03-15T17:25:12.488Z,3.27
2019-03-15T17:27:38.887Z,3.33
2019-03-15T17:30:17.396Z,3.10
2019-03-15T17:32:44.186Z,3.57
2019-03-15T17:35:14.412Z,4.13
2019-03-15T17:37:40.798Z,3.10
2019-03-15T17:40:10.124Z,3.47
2019-03-15T17:42:36.425Z,3.83
2019-03-15T17:45:04.929Z,3.10
2019-03-15T17:47:31.229Z,3.73
2019-03-15T17:49:57.677Z,3.30
2019-03-15T17:52:24.080Z,3.80
2019-03-15T17:54:50.466Z,3.77
2019-03-15T17:57:16.732Z,4.07
2019-03-15T17:59:58.946Z,3.87
2019-03-15T18:02:25.242Z,4.57
2019-03-15T18:04:51.551Z,4.53
2019-03-15T18:07:17.844Z,4.50
2019-03-15T18:09:44.158Z,4.07
2019-03-15T18:12:10.566Z,4.53
2019-03-15T18:14:36.860Z,5.13
2019-03-15T18:17:03.252Z,5.07
2019-03-15T18:19:29.541Z,5.37
2019-03-15T18:21:55.821Z,4.30
2019-03-15T18:24:22.090Z,4.60
2019-03-15T18:26:48.391Z,4.87
2019-03-15T18:29:25.675Z,4.77
2019-03-15T18:31:42.852Z,5.10
2019-03-15T18:34:09.152Z,5.17
2019-03-15T18:36:35.421Z,5.37
2019-03-15T18:39:01.842Z,6.07
2019-03-15T18:41:28.110Z,5.20
2019-03-15T18:43:54.422Z,4.40
2019-03-15T18:46:20.853Z,4.53
2019-03-15T18:48:47.313Z,5.60
2019-03-15T18:51:13.577Z,5.57
2019-03-15T18:53:39.787Z,5.40
2019-03-15T18:56:06.073Z,4.37
2019-03-15T18:58:32.331Z,4.40
2019-03-15T19:00:58.855Z,4.67
2019-03-15T19:03:25.168Z,5.07
2019-03-15T19:05:51.466Z,4.57
2019-03-15T19:08:17.852Z,4.17
2019-03-15T19:10:44.159Z,4.47
2019-03-15T19:13:10.429Z,3.97
2019-03-15T19:15:36.722Z,4.27
2019-03-15T19:18:03.004Z,4.73
2019-03-15T19:20:29.350Z,4.40
2019-03-15T19:22:55.725Z,4.57
2019-03-15T19:25:22.043Z,4.80
2019-03-15T19:27:48.473Z,4.67
2019-03-15T19:30:18.475Z,4.17
2019-03-15T19:32:44.765Z,4.87
2019-03-15T19:35:11.176Z,4.80
2019-03-15T19:37:37.437Z,3.73
2019-03-15T19:40:07.451Z,4.43
2019-03-15T19:42:33.747Z,4.17
2019-03-15T19:45:00.074Z,4.80
2019-03-15T19:47:26.361Z,4.30
2019-03-15T19:49:52.666Z,4.00
2019-03-15T19:52:19.061Z,4.23
2019-03-15T19:54:45.353Z,3.80
2019-03-15T19:57:11.936Z,3.60
2019-03-15T19:59:38.247Z,4.57
2019-03-15T20:02:04.530Z,4.50
2019-03-15T20:04:30.856Z,4.13
2019-03-15T20:06:57.155Z,4.80
2019-03-15T20:09:23.447Z,4.43
2019-03-15T20:11:49.797Z,4.60
2019-03-15T20:14:16.090Z,4.27
2019-03-15T20:16:42.381Z,4.20
2019-03-15T20:19:08.951Z,4.30
2019-03-15T20:21:35.263Z,4.87
2019-03-15T20:24:01.604Z,4.10
2019-03-15T20:26:27.849Z,4.10
2019-03-15T20:28:54.130Z,3.97
2019-03-15T20:31:20.452Z,4.43
2019-03-15T20:33:46.737Z,3.93
2019-03-15T20:36:13.042Z,3.83
2019-03-15T20:38:39.589Z,4.17
2019-03-15T20:41:05.795Z,5.23
2019-03-15T20:43:32.081Z,4.23
2019-03-15T20:45:58.488Z,3.50
2019-03-15T20:48:24.788Z,4.10
2019-03-15T20:50:51.074Z,3.60
2019-03-15T20:53:17.363Z,4.03
2019-03-15T20:55:43.757Z,3.90
2019-03-15T20:58:10.210Z,3.87
2019-03-15T21:00:36.500Z,4.60
2019-03-15T21:03:02.785Z,3.80
2019-03-15T21:05:29.427Z,3.43
2019-03-15T21:07:55.743Z,4.57
2019-03-15T21:10:22.142Z,5.23
2019-03-15T21:12:48.424Z,4.27
2019-03-15T21:15:15.038Z,4.03
2019-03-15T21:17:41.538Z,3.53
2019-03-15T21:20:10.847Z,3.77
2019-03-15T21:22:37.255Z,3.57
2019-03-15T21:25:03.955Z,3.77
2019-03-15T21:27:30.242Z,4.13
2019-03-15T21:29:56.543Z,3.87
2019-03-15T21:32:23.153Z,4.13
2019-03-15T21:34:49.464Z,4.50
2019-03-15T21:37:15.783Z,4.80
2019-03-15T21:39:42.082Z,4.70
2019-03-15T21:42:08.372Z,4.83
2019-03-15T21:44:34.935Z,4.67
2019-03-15T21:47:01.155Z,4.77
2019-03-15T21:49:27.459Z,5.17
2019-03-15T21:51:53.745Z,4.27
2019-03-15T21:54:20.045Z,4.60
2019-03-15T21:56:46.326Z,4.90
2019-03-15T21:59:12.636Z,5.13
2019-03-15T22:01:38.914Z,5.33
2019-03-15T22:04:05.208Z,5.13
2019-03-15T22:06:31.475Z,5.80
2019-03-15T22:08:57.761Z,4.77
2019-03-15T22:11:24.061Z,5.10
2019-03-15T22:13:50.320Z,5.57
2019-03-15T22:16:16.610Z,5.23
2019-03-15T22:18:42.897Z,4.80
2019-03-15T22:21:09.454Z,4.90
2019-03-15T22:23:35.754Z,4.67
2019-03-15T22:26:02.026Z,4.67
2019-03-15T22:28:28.323Z,5.27
2019-03-15T22:30:54.610Z,5.87
2019-03-15T22:33:20.941Z,5.30
2019-03-15T22:35:47.208Z,4.77
2019-03-15T22:38:25.549Z,4.70
2019-03-15T22:40:41.791Z,4.77
2019-03-15T22:43:08.028Z,5.20
2019-03-15T22:45:34.338Z,4.83
2019-03-15T22:48:00.623Z,4.87
2019-03-15T22:50:26.934Z,4.87
2019-03-15T22:52:53.239Z,4.33
2019-03-15T22:55:19.443Z,5.60
2019-03-15T22:57:58.944Z,5.13
2019-03-15T23:00:16.433Z,4.73
2019-03-15T23:02:42.819Z,4.87
2019-03-15T23:05:09.570Z,4.33
2019-03-15T23:07:35.914Z,6.03
2019-03-15T23:10:03.288Z,6.67
2019-03-15T23:12:29.569Z,5.57
2019-03-15T23:14:55.866Z,6.60
2019-03-15T23:17:22.072Z,6.63
2019-03-15T23:19:48.372Z,6.97
2019-03-15T23:22:14.683Z,7.80
2019-03-15T23:24:40.953Z,7.37
2019-03-15T23:27:07.251Z,7.90
2019-03-15T23:29:33.522Z,7.07
2019-03-15T23:31:59.841Z,6.87
2019-03-15T23:34:26.145Z,6.67
2019-03-15T23:36:52.433Z,6.50
2019-03-15T23:39:18.724Z,6.37
2019-03-15T23:41:45.291Z,7.23
2019-03-15T23:44:11.768Z,6.37
2019-03-15T23:46:38.046Z,5.80
2019-03-15T23:49:04.352Z,5.53
2019-03-15T23:51:30.626Z,6.17
2019-03-15T23:53:56.928Z,5.20
2019-03-15T23:56:23.205Z,5.80
2019-03-15T23:58:49.497Z,5.77
